Time;durP1;ratioP1;P1;durP2;ratioP2;P2;SDS_P1;SDS_P2;PMS_P1;PMS_P2;Temp;Humidity;BMP_temperature;BMP_pressure;BME280_temperature;BME280_humidity;BME280_pressure;Samples;Min_cycle;Max_cycle;Signal;HPM_P1;HPM_P2
2021/06/29 00:00:33;;;;;;;78.38;47.70;;;22.10;99.90;;;;;;4165563;28;20284;-88
2021/06/29 00:02:34;;;;;;;84.00;51.22;;;21.90;99.90;;;;;;4182160;28;20555;-88
2021/06/29 00:04:35;;;;;;;88.82;52.05;;;21.40;99.90;;;;;;4165389;28;20538;-88
2021/06/29 00:06:36;;;;;;;78.22;49.17;;;21.20;99.90;;;;;;4198433;28;20221;-89
2021/06/29 00:08:36;;;;;;;72.88;48.17;;;20.70;99.90;;;;;;4182275;28;20190;-88
2021/06/29 00:10:37;;;;;;;80.95;49.90;;;20.40;99.90;;;;;;4165680;28;20181;-88
2021/06/29 00:12:38;;;;;;;74.88;49.38;;;20.40;99.90;;;;;;4198309;28;20647;-88
2021/06/29 00:14:40;;;;;;;66.22;46.97;;;20.30;99.90;;;;;;4181973;28;20175;-88
2021/06/29 00:16:41;;;;;;;70.85;47.67;;;20.10;99.90;;;;;;4182241;28;20246;-88
2021/06/29 00:18:42;;;;;;;68.90;46.08;;;19.80;99.90;;;;;;4199476;28;20515;-89
2021/06/29 00:20:42;;;;;;;73.20;47.70;;;19.70;99.90;;;;;;4166331;28;20287;-89
2021/06/29 00:22:45;;;;;;;69.20;46.47;;;19.90;99.90;;;;;;4182599;28;20290;-88
2021/06/29 00:24:46;;;;;;;72.18;45.63;;;20.20;99.90;;;;;;4165096;28;20208;-88
2021/06/29 00:26:47;;;;;;;70.00;48.05;;;20.30;99.90;;;;;;4181511;28;20182;-88
2021/06/29 00:28:47;;;;;;;80.57;52.22;;;20.50;99.90;;;;;;4181772;28;20206;-88
2021/06/29 00:30:48;;;;;;;92.57;58.13;;;21.00;99.90;;;;;;4165469;28;20172;-93
2021/06/29 00:32:49;;;;;;;99.32;59.42;;;21.20;99.90;;;;;;4181972;28;20188;-87
2021/06/29 00:34:49;;;;;;;107.13;61.80;;;21.10;99.90;;;;;;4181941;28;20176;-88
2021/06/29 00:36:50;;;;;;;114.13;65.32;;;21.00;99.90;;;;;;4181726;28;20175;-90
2021/06/29 00:38:51;;;;;;;120.60;68.05;;;20.80;99.90;;;;;;4181624;28;20175;-87
2021/06/29 00:40:52;;;;;;;110.63;63.85;;;20.70;99.90;;;;;;4181549;28;20168;-87
2021/06/29 00:42:53;;;;;;;109.32;64.03;;;20.30;99.90;;;;;;4181438;28;20229;-88
2021/06/29 00:44:54;;;;;;;110.10;63.92;;;20.00;99.90;;;;;;4165264;28;20757;-89
2021/06/29 00:46:55;;;;;;;104.50;60.65;;;19.80;99.90;;;;;;4198282;28;20273;-89
2021/06/29 00:48:56;;;;;;;101.50;57.28;;;19.70;99.90;;;;;;4182070;28;20206;-88
2021/06/29 00:50:57;;;;;;;99.50;60.97;;;19.70;99.90;;;;;;4181721;28;20544;-91
2021/06/29 00:52:58;;;;;;;91.75;54.85;;;19.80;99.90;;;;;;4181886;28;20249;-89
2021/06/29 00:55:00;;;;;;;82.00;52.67;;;19.80;99.90;;;;;;4181823;28;20174;-88
2021/06/29 00:57:01;;;;;;;91.60;57.63;;;19.80;99.90;;;;;;4181412;28;20176;-88
2021/06/29 00:59:02;;;;;;;91.50;55.55;;;19.80;99.90;;;;;;4180924;28;20163;-89
2021/06/29 01:01:02;;;;;;;79.18;50.83;;;19.80;99.90;;;;;;4181896;28;20171;-90
2021/06/29 01:03:04;;;;;;;74.47;47.25;;;19.90;99.90;;;;;;4181535;28;20293;-88
2021/06/29 01:05:06;;;;;;;79.72;52.40;;;19.90;99.90;;;;;;4182197;28;20266;-89
2021/06/29 01:07:09;;;;;;;77.15;50.30;;;19.90;99.90;;;;;;4182511;28;20171;-89
2021/06/29 01:09:10;;;;;;;73.40;48.95;;;20.00;99.90;;;;;;4181984;28;20229;-89
2021/06/29 01:11:13;;;;;;;83.07;52.80;;;19.90;99.90;;;;;;4165221;28;20178;-89
2021/06/29 01:13:56;;;;;;;77.72;51.53;;;20.00;99.90;;;;;;4165978;28;20196;-88
2021/06/29 01:15:58;;;;;;;81.32;51.85;;;20.10;99.90;;;;;;4169729;28;20183;-89
2021/06/29 01:18:01;;;;;;;81.35;50.95;;;19.90;99.90;;;;;;4198413;28;20166;-88
2021/06/29 01:20:12;;;;;;;85.13;52.63;;;19.80;99.90;;;;;;4181573;28;20225;-88
2021/06/29 01:22:14;;;;;;;75.38;50.85;;;19.70;99.90;;;;;;4181727;28;20265;-89
2021/06/29 01:24:20;;;;;;;73.82;50.80;;;19.80;99.90;;;;;;4182453;28;20262;-89
2021/06/29 01:26:27;;;;;;;72.80;48.05;;;19.90;99.90;;;;;;4182583;28;20171;-89
2021/06/29 01:28:32;;;;;;;66.15;47.28;;;19.80;99.90;;;;;;4198707;28;20272;-89
2021/06/29 01:32:52;;;;;;;62.60;42.33;;;19.70;99.90;;;;;;4181699;28;20699;-88
2021/06/29 01:34:53;;;;;;;56.05;39.80;;;19.70;99.90;;;;;;4198983;28;20175;-88
2021/06/29 01:36:54;;;;;;;49.55;35.72;;;19.60;99.90;;;;;;4182469;28;20183;-88
2021/06/29 01:38:54;;;;;;;44.58;33.30;;;19.60;99.90;;;;;;4181835;28;20199;-88
2021/06/29 01:40:55;;;;;;;40.97;30.45;;;19.60;99.90;;;;;;4182303;28;20704;-89
2021/06/29 01:42:58;;;;;;;42.00;30.42;;;19.70;99.90;;;;;;4181433;28;20187;-89
2021/06/29 01:45:00;;;;;;;35.00;26.73;;;19.80;99.90;;;;;;4182025;28;20203;-88
2021/06/29 01:47:04;;;;;;;26.83;19.95;;;19.80;99.90;;;;;;4181303;28;20171;-89
2021/06/29 01:49:05;;;;;;;23.13;16.20;;;19.70;99.90;;;;;;4181266;28;20179;-89
2021/06/29 01:51:07;;;;;;;23.70;17.20;;;19.70;99.90;;;;;;4197942;28;20192;-90
2021/06/29 01:53:08;;;;;;;23.38;12.85;;;19.60;99.90;;;;;;4181975;28;20230;-89
2021/06/29 01:55:10;;;;;;;17.98;12.65;;;19.60;99.90;;;;;;4197747;28;20166;-89
2021/06/29 01:57:18;;;;;;;13.75;9.75;;;19.50;99.90;;;;;;4164817;28;20656;-90
2021/06/29 01:59:21;;;;;;;22.77;9.25;;;19.60;99.90;;;;;;4164731;28;20168;-89
2021/06/29 02:01:22;;;;;;;14.13;9.15;;;19.50;99.90;;;;;;4165193;28;20203;-90
2021/06/29 02:03:23;;;;;;;16.77;6.47;;;19.50;99.90;;;;;;4181312;28;20195;-91
2021/06/29 02:05:24;;;;;;;8.10;5.50;;;19.50;99.90;;;;;;4165468;28;20208;-94
2021/06/29 02:07:24;;;;;;;9.13;5.72;;;19.40;99.90;;;;;;4181675;28;20176;-89
2021/06/29 02:09:25;;;;;;;9.73;4.93;;;19.30;99.90;;;;;;4203635;22;20305;-85
2021/06/29 02:11:26;;;;;;;8.80;4.80;;;19.40;99.90;;;;;;4217135;28;20219;-85
2021/06/29 02:13:27;;;;;;;15.07;5.53;;;19.40;99.90;;;;;;4171451;28;20286;-85
2021/06/29 02:15:27;;;;;;;8.38;4.38;;;19.30;99.90;;;;;;4182827;28;20163;-84
2021/06/29 02:17:28;;;;;;;9.75;4.40;;;19.40;99.90;;;;;;4182767;28;20180;-84
2021/06/29 02:19:29;;;;;;;11.52;4.50;;;19.30;99.90;;;;;;4183428;28;20178;-85
2021/06/29 02:21:30;;;;;;;6.78;4.10;;;19.40;99.90;;;;;;4183204;28;20221;-84
2021/06/29 02:23:30;;;;;;;6.32;4.47;;;19.40;99.90;;;;;;4182758;28;20183;-85
2021/06/29 02:25:31;;;;;;;8.75;4.28;;;19.40;99.90;;;;;;4199403;28;20206;-85
2021/06/29 02:27:32;;;;;;;5.70;4.03;;;19.40;99.90;;;;;;4166412;28;20175;-84
2021/06/29 02:29:34;;;;;;;7.57;4.40;;;19.40;99.90;;;;;;4183381;28;20198;-85
2021/06/29 02:31:35;;;;;;;9.98;4.10;;;19.40;99.90;;;;;;4187106;28;20175;-85
2021/06/29 02:33:36;;;;;;;7.78;3.95;;;19.40;99.90;;;;;;4183104;28;20294;-85
2021/06/29 02:35:37;;;;;;;14.63;4.20;;;19.40;99.90;;;;;;4183857;28;20171;-85
2021/06/29 02:37:38;;;;;;;8.75;3.90;;;19.40;99.90;;;;;;4183047;28;20740;-85
2021/06/29 02:39:39;;;;;;;5.97;3.80;;;19.40;99.90;;;;;;4182822;28;20183;-85
2021/06/29 02:41:39;;;;;;;9.00;3.03;;;19.40;99.90;;;;;;4166100;28;20176;-85
2021/06/29 02:43:42;;;;;;;5.45;2.95;;;19.30;99.90;;;;;;4182613;28;20187;-85
2021/06/29 02:45:44;;;;;;;4.85;3.33;;;19.30;99.90;;;;;;4182747;28;20242;-85
2021/06/29 02:47:46;;;;;;;3.80;2.50;;;19.30;99.90;;;;;;4182338;28;20163;-84
2021/06/29 02:49:46;;;;;;;9.27;2.15;;;19.10;99.90;;;;;;4183034;28;20725;-85
2021/06/29 02:51:47;;;;;;;3.83;2.15;;;19.00;99.90;;;;;;4182537;28;20217;-84
2021/06/29 02:53:48;;;;;;;4.80;1.90;;;18.90;99.90;;;;;;4166652;28;20607;-84
2021/06/29 02:55:48;;;;;;;3.95;1.83;;;18.90;99.90;;;;;;4165966;28;20179;-84
2021/06/29 02:57:49;;;;;;;4.50;2.00;;;18.80;99.90;;;;;;4182370;28;20590;-85
2021/06/29 02:59:50;;;;;;;6.25;2.15;;;18.80;99.90;;;;;;4165796;28;20216;-84
2021/06/29 03:01:51;;;;;;;5.00;2.00;;;18.80;99.90;;;;;;4198785;28;20659;-85
2021/06/29 03:03:51;;;;;;;6.07;1.73;;;18.80;99.90;;;;;;4165817;28;20188;-84
2021/06/29 03:05:52;;;;;;;3.13;1.70;;;18.70;99.90;;;;;;4198567;28;20606;-84
2021/06/29 03:07:53;;;;;;;4.25;1.40;;;18.60;99.90;;;;;;4181843;28;20168;-84
2021/06/29 03:09:53;;;;;;;3.08;1.35;;;18.70;99.90;;;;;;4198848;28;20183;-84
2021/06/29 03:11:54;;;;;;;4.60;1.50;;;18.70;99.90;;;;;;4165961;28;20165;-85
2021/06/29 03:13:55;;;;;;;5.60;1.05;;;18.70;99.90;;;;;;4181878;28;20195;-85
2021/06/29 03:15:55;;;;;;;4.18;1.48;;;18.70;99.90;;;;;;4182006;28;20182;-84
2021/06/29 03:17:56;;;;;;;5.63;1.45;;;18.70;99.90;;;;;;4198583;28;20586;-84
2021/06/29 03:19:57;;;;;;;4.18;1.42;;;18.70;99.90;;;;;;4182133;28;20172;-84
2021/06/29 03:21:59;;;;;;;7.35;1.50;;;18.60;99.90;;;;;;4197808;28;20675;-85
2021/06/29 03:24:00;;;;;;;5.82;1.45;;;18.60;99.90;;;;;;4199800;28;20178;-84
2021/06/29 03:26:02;;;;;;;8.70;1.50;;;18.60;99.90;;;;;;4181991;28;20269;-85
2021/06/29 03:28:02;;;;;;;6.18;1.55;;;18.60;99.90;;;;;;4181800;28;20251;-94
2021/06/29 03:30:05;;;;;;;4.50;1.08;;;18.60;99.90;;;;;;4181849;28;20568;-85
2021/06/29 03:32:07;;;;;;;5.35;1.30;;;18.50;99.90;;;;;;4181563;28;20164;-84
2021/06/29 03:34:08;;;;;;;2.35;1.30;;;18.50;99.90;;;;;;4165445;28;20172;-84
2021/06/29 03:36:10;;;;;;;3.70;1.40;;;18.40;99.90;;;;;;4199702;28;20179;-84
2021/06/29 03:38:11;;;;;;;4.05;1.20;;;18.40;99.90;;;;;;4199402;28;20186;-84
2021/06/29 03:40:13;;;;;;;7.00;1.10;;;18.40;99.90;;;;;;4199691;28;20163;-84
2021/06/29 03:42:14;;;;;;;1.85;1.20;;;18.40;99.90;;;;;;4181823;28;20571;-84
2021/06/29 03:44:14;;;;;;;4.93;1.30;;;18.50;99.90;;;;;;4181443;28;20255;-84
2021/06/29 03:46:15;;;;;;;5.53;1.52;;;18.50;99.90;;;;;;4181545;28;20189;-84
2021/06/29 03:48:16;;;;;;;4.50;1.30;;;18.30;99.90;;;;;;4181267;28;20649;-85
2021/06/29 03:50:16;;;;;;;4.60;1.40;;;18.30;99.90;;;;;;4165101;28;20242;-84
2021/06/29 03:52:17;;;;;;;4.40;1.50;;;18.20;99.90;;;;;;4181531;28;20167;-84
2021/06/29 03:54:18;;;;;;;5.80;1.38;;;18.20;99.90;;;;;;4181427;28;20269;-84
2021/06/29 03:56:24;;;;;;;4.10;1.40;;;18.10;99.90;;;;;;4181844;28;20250;-84
2021/06/29 03:58:25;;;;;;;5.95;1.60;;;18.00;99.90;;;;;;4181488;28;20716;-84
2021/06/29 04:00:26;;;;;;;9.77;1.50;;;18.00;99.90;;;;;;4181205;28;20210;-84
2021/06/29 04:02:27;;;;;;;10.40;1.60;;;18.10;99.90;;;;;;4197137;28;20303;-84
2021/06/29 04:04:28;;;;;;;7.75;1.70;;;18.20;99.90;;;;;;4181613;28;20235;-84
2021/06/29 04:06:34;;;;;;;4.97;1.42;;;18.20;99.90;;;;;;4164761;28;20244;-84
2021/06/29 04:08:34;;;;;;;7.78;1.30;;;18.30;99.90;;;;;;4181083;28;20188;-84
2021/06/29 04:10:35;;;;;;;6.50;1.42;;;18.30;99.90;;;;;;4198380;28;20642;-84
2021/06/29 04:12:36;;;;;;;5.97;1.48;;;18.30;99.90;;;;;;4180782;28;20297;-84
2021/06/29 04:14:36;;;;;;;7.95;1.40;;;18.20;99.90;;;;;;4197870;28;20182;-84
2021/06/29 04:16:37;;;;;;;6.22;1.02;;;18.10;99.90;;;;;;4180847;28;20197;-84
2021/06/29 04:18:38;;;;;;;7.65;1.40;;;18.10;99.90;;;;;;4197967;28;20167;-84
2021/06/29 04:20:39;;;;;;;8.27;1.80;;;18.10;99.90;;;;;;4164700;28;20176;-84
2021/06/29 04:22:40;;;;;;;8.82;1.10;;;18.30;99.90;;;;;;4181072;28;20591;-84
2021/06/29 04:24:41;;;;;;;4.78;1.25;;;18.40;99.90;;;;;;4180996;28;20204;-84
2021/06/29 04:26:42;;;;;;;2.83;1.13;;;18.40;99.90;;;;;;4181125;28;20175;-84
2021/06/29 04:28:42;;;;;;;5.20;1.30;;;18.40;99.90;;;;;;4180917;28;20674;-84
2021/06/29 04:30:43;;;;;;;5.25;1.30;;;18.50;99.90;;;;;;4164528;28;20250;-83
2021/06/29 04:32:44;;;;;;;6.90;1.20;;;18.50;99.90;;;;;;4180758;28;20194;-84
2021/06/29 04:34:44;;;;;;;5.97;1.35;;;18.50;99.90;;;;;;4164493;28;20172;-84
2021/06/29 04:36:45;;;;;;;6.65;1.40;;;18.50;99.90;;;;;;4164336;28;20172;-84
2021/06/29 04:38:47;;;;;;;11.02;1.40;;;18.30;99.90;;;;;;4180892;28;20182;-84
2021/06/29 04:40:48;;;;;;;7.60;1.20;;;18.30;99.90;;;;;;4181306;28;20278;-95
2021/06/29 04:42:49;;;;;;;8.02;1.50;;;18.20;99.90;;;;;;4180763;28;20187;-94
2021/06/29 04:44:50;;;;;;;3.92;1.10;;;18.00;99.90;;;;;;4180739;28;20203;-94
2021/06/29 04:46:51;;;;;;;4.65;1.20;;;17.90;99.90;;;;;;4165071;28;20206;-84
2021/06/29 04:48:52;;;;;;;10.60;1.30;;;18.00;99.90;;;;;;4180970;28;20651;-91
2021/06/29 04:50:53;;;;;;;6.85;1.05;;;18.00;99.90;;;;;;4164452;28;20180;-84
2021/06/29 04:52:53;;;;;;;4.82;1.25;;;18.00;99.90;;;;;;4197321;28;20551;-85
2021/06/29 04:54:54;;;;;;;7.32;1.00;;;18.00;99.90;;;;;;4180827;28;20225;-84
2021/06/29 04:56:55;;;;;;;8.52;1.38;;;18.10;99.90;;;;;;4180411;28;20543;-84
2021/06/29 04:58:57;;;;;;;10.85;1.20;;;18.10;99.90;;;;;;4180736;28;20199;-84
2021/06/29 05:00:58;;;;;;;4.85;0.95;;;18.10;99.90;;;;;;4197488;28;20175;-84
2021/06/29 05:02:59;;;;;;;3.35;1.35;;;18.00;99.90;;;;;;4180407;28;20622;-84
2021/06/29 05:04:59;;;;;;;8.30;1.50;;;18.00;99.90;;;;;;4180482;28;20262;-84
2021/06/29 05:07:00;;;;;;;6.38;1.90;;;18.10;99.90;;;;;;4198564;28;20171;-95
2021/06/29 05:09:01;;;;;;;13.00;2.97;;;18.20;99.90;;;;;;4180909;28;20198;-83
2021/06/29 05:11:02;;;;;;;16.65;3.42;;;18.10;99.90;;;;;;4181302;28;20171;-83
2021/06/29 05:13:03;;;;;;;8.00;3.72;;;18.00;99.90;;;;;;4180876;28;20196;-84
2021/06/29 05:15:05;;;;;;;18.98;4.50;;;18.00;99.90;;;;;;4163945;28;20168;-84
2021/06/29 05:17:06;;;;;;;12.43;4.95;;;17.90;99.90;;;;;;4180618;28;20164;-84
2021/06/29 05:19:07;;;;;;;12.65;5.50;;;18.00;99.90;;;;;;4181033;28;20270;-84
2021/06/29 05:21:08;;;;;;;15.63;5.95;;;17.90;99.90;;;;;;4180999;28;20624;-87
2021/06/29 05:23:09;;;;;;;15.48;6.40;;;17.80;99.90;;;;;;4164945;28;20663;-84
2021/06/29 05:25:10;;;;;;;12.20;5.80;;;17.90;99.90;;;;;;4181331;28;20203;-84
2021/06/29 05:27:11;;;;;;;16.98;5.85;;;18.00;99.90;;;;;;4180448;28;20175;-84
2021/06/29 05:29:11;;;;;;;11.45;5.38;;;18.00;99.90;;;;;;4180278;28;20670;-84
2021/06/29 05:31:12;;;;;;;10.82;5.47;;;18.00;99.90;;;;;;4196799;28;20666;-84
2021/06/29 05:33:14;;;;;;;17.35;6.63;;;18.00;99.90;;;;;;4179968;28;20614;-84
2021/06/29 05:35:14;;;;;;;15.20;5.75;;;18.20;99.90;;;;;;4180215;28;20539;-85
2021/06/29 05:37:15;;;;;;;15.55;5.65;;;18.10;99.90;;;;;;4180265;28;20171;-84
2021/06/29 05:39:17;;;;;;;13.73;6.15;;;18.20;99.90;;;;;;4180066;28;20191;-84
2021/06/29 05:41:18;;;;;;;15.93;5.60;;;18.30;99.90;;;;;;4180650;28;20171;-85
2021/06/29 05:43:19;;;;;;;19.00;5.90;;;18.30;99.90;;;;;;4180088;28;20234;-84
2021/06/29 05:45:19;;;;;;;18.10;5.72;;;18.40;99.90;;;;;;4197427;28;20206;-84
2021/06/29 05:47:21;;;;;;;14.10;5.90;;;18.50;99.90;;;;;;4183281;28;20179;-84
2021/06/29 05:49:22;;;;;;;12.05;5.60;;;18.40;99.90;;;;;;4166941;28;20234;-84
2021/06/29 05:51:23;;;;;;;15.05;5.40;;;18.30;99.90;;;;;;4183633;28;20226;-84
2021/06/29 05:53:23;;;;;;;13.57;6.18;;;18.40;99.90;;;;;;4183289;28;20183;-84
2021/06/29 05:55:24;;;;;;;15.45;6.35;;;18.50;99.90;;;;;;4183298;28;20176;-84
2021/06/29 05:57:25;;;;;;;16.40;5.20;;;18.80;99.90;;;;;;4183643;28;20168;-83
2021/06/29 05:59:26;;;;;;;9.38;4.90;;;18.90;99.90;;;;;;4183490;28;20178;-84
2021/06/29 06:01:27;;;;;;;18.02;5.18;;;19.10;99.90;;;;;;4183641;28;20207;-84
2021/06/29 06:03:27;;;;;;;15.65;4.70;;;19.20;99.90;;;;;;4183224;28;20193;-84
2021/06/29 06:05:28;;;;;;;15.30;5.13;;;19.30;99.90;;;;;;4182972;28;20215;-84
2021/06/29 06:07:28;;;;;;;9.77;4.28;;;19.50;99.90;;;;;;4199546;28;20748;-84
2021/06/29 06:09:29;;;;;;;14.00;4.80;;;19.50;99.90;;;;;;4166431;28;20628;-84
2021/06/29 06:11:30;;;;;;;13.60;5.05;;;19.60;99.90;;;;;;4200974;28;20167;-84
2021/06/29 06:13:30;;;;;;;14.80;4.68;;;19.60;99.90;;;;;;4166827;28;20192;-84
2021/06/29 06:15:31;;;;;;;9.23;4.80;;;19.60;99.90;;;;;;4183090;28;20171;-84
2021/06/29 06:17:37;;;;;;;18.65;4.78;;;19.60;99.90;;;;;;4167118;28;20526;-96
2021/06/29 06:19:38;;;;;;;12.63;4.38;;;19.60;99.90;;;;;;4183157;28;20281;-84
2021/06/29 06:21:38;;;;;;;20.15;4.95;;;19.80;99.90;;;;;;4183143;28;20574;-84
2021/06/29 06:23:39;;;;;;;11.48;4.40;;;19.60;99.90;;;;;;4199696;28;20198;-84
2021/06/29 06:25:40;;;;;;;11.20;4.13;;;19.50;99.90;;;;;;4183054;28;20587;-84
2021/06/29 06:27:41;;;;;;;11.85;3.72;;;19.40;99.90;;;;;;4199393;28;20181;-84
2021/06/29 06:29:42;;;;;;;8.32;4.40;;;19.10;99.90;;;;;;4183603;28;20179;-84
2021/06/29 06:31:43;;;;;;;13.75;3.80;;;19.00;99.90;;;;;;4183328;28;20247;-84
2021/06/29 06:33:43;;;;;;;10.43;3.53;;;19.10;99.90;;;;;;4183531;28;20199;-84
2021/06/29 06:35:44;;;;;;;11.77;3.47;;;19.20;99.90;;;;;;4183467;28;20241;-88
2021/06/29 06:37:45;;;;;;;11.45;3.53;;;19.10;99.90;;;;;;4183272;28;20178;-85
2021/06/29 06:39:45;;;;;;;14.63;3.65;;;19.10;99.90;;;;;;4200079;28;20211;-84
2021/06/29 06:41:46;;;;;;;16.70;3.33;;;19.30;99.90;;;;;;4166364;28;20608;-86
2021/06/29 06:43:47;;;;;;;12.48;3.83;;;19.30;99.90;;;;;;4168677;28;20657;-84
2021/06/29 06:45:47;;;;;;;10.25;3.80;;;19.50;99.90;;;;;;4183826;28;20294;-89
2021/06/29 06:47:48;;;;;;;9.13;3.08;;;19.50;99.90;;;;;;4183288;28;20172;-84
2021/06/29 06:49:49;;;;;;;14.30;3.70;;;19.20;99.90;;;;;;4201345;28;20166;-92
2021/06/29 06:51:50;;;;;;;9.25;3.85;;;19.10;99.90;;;;;;4167878;28;20233;-85
2021/06/29 06:53:51;;;;;;;9.23;3.95;;;19.10;99.90;;;;;;4183225;28;20249;-85
2021/06/29 06:55:52;;;;;;;6.03;3.80;;;19.10;99.90;;;;;;4201672;28;20170;-88
2021/06/29 06:57:54;;;;;;;14.93;4.15;;;19.30;99.90;;;;;;4181659;28;20588;-84
2021/06/29 06:59:54;;;;;;;7.82;4.03;;;19.30;99.90;;;;;;4183938;28;20740;-86
2021/06/29 07:01:55;;;;;;;9.38;4.63;;;19.20;99.90;;;;;;4182752;28;20250;-94
2021/06/29 07:03:56;;;;;;;8.27;4.13;;;19.20;99.90;;;;;;4166554;28;20402;-90
2021/06/29 07:05:56;;;;;;;9.57;5.20;;;19.30;99.90;;;;;;4182751;28;20203;-84
2021/06/29 07:07:57;;;;;;;10.18;5.35;;;19.30;99.90;;;;;;4167470;28;20180;-84
2021/06/29 07:09:58;;;;;;;13.15;5.22;;;19.30;99.90;;;;;;4167258;28;20210;-84
2021/06/29 07:11:59;;;;;;;11.25;5.35;;;19.30;99.90;;;;;;4165879;28;20212;-85
2021/06/29 07:14:00;;;;;;;10.85;5.63;;;19.50;99.90;;;;;;4199135;28;20214;-84
2021/06/29 07:16:01;;;;;;;12.68;6.05;;;19.40;99.90;;;;;;4183470;28;20221;-92
2021/06/29 07:18:02;;;;;;;11.73;5.78;;;19.30;99.90;;;;;;4185184;28;20174;-89
2021/06/29 07:20:07;;;;;;;13.35;6.13;;;19.50;99.90;;;;;;4183799;28;20176;-90
2021/06/29 07:22:08;;;;;;;14.40;6.32;;;19.60;99.90;;;;;;4166297;28;20164;-87
2021/06/29 07:24:09;;;;;;;18.40;7.25;;;19.40;99.90;;;;;;4183378;28;20205;-84
2021/06/29 07:26:10;;;;;;;12.10;6.82;;;19.10;99.90;;;;;;4182613;28;20203;-86
2021/06/29 07:28:11;;;;;;;11.07;7.07;;;19.00;99.90;;;;;;4182668;28;20176;-89
2021/06/29 07:30:12;;;;;;;18.08;7.95;;;19.00;99.90;;;;;;4167651;28;20168;-84
2021/06/29 07:32:13;;;;;;;15.15;7.57;;;19.20;99.90;;;;;;4167932;28;20628;-83
2021/06/29 07:34:14;;;;;;;15.60;7.32;;;19.30;99.90;;;;;;4166628;28;20172;-85
2021/06/29 07:36:16;;;;;;;14.77;7.40;;;19.40;99.90;;;;;;4199717;28;20258;-89
2021/06/29 07:38:16;;;;;;;10.65;7.60;;;19.40;99.90;;;;;;4184771;28;20223;-95
2021/06/29 07:40:17;;;;;;;13.10;8.02;;;19.60;99.90;;;;;;4201440;28;20179;-84
2021/06/29 07:42:18;;;;;;;15.02;8.02;;;19.70;99.90;;;;;;4183303;28;20713;-90
2021/06/29 07:44:19;;;;;;;17.65;8.20;;;19.70;99.90;;;;;;4167247;28;20576;-92
2021/06/29 07:46:20;;;;;;;16.42;8.85;;;19.80;99.90;;;;;;4183968;28;20176;-87
2021/06/29 07:48:21;;;;;;;18.10;9.10;;;19.80;99.90;;;;;;4184829;28;20171;-89
2021/06/29 07:50:22;;;;;;;16.50;8.30;;;19.80;99.90;;;;;;4168725;28;20541;-88
2021/06/29 07:52:23;;;;;;;15.32;8.23;;;20.00;99.90;;;;;;4184366;28;20207;-85
2021/06/29 07:54:24;;;;;;;12.50;8.15;;;20.30;99.90;;;;;;4183925;28;20168;-88
2021/06/29 07:56:25;;;;;;;14.07;7.75;;;20.40;99.90;;;;;;4167461;28;20291;-88
2021/06/29 07:58:27;;;;;;;16.77;8.07;;;20.60;99.90;;;;;;4167840;28;20633;-86
2021/06/29 08:00:27;;;;;;;15.68;9.07;;;20.80;99.90;;;;;;4183753;28;20164;-91
2021/06/29 08:02:28;;;;;;;15.73;8.50;;;21.00;99.90;;;;;;4167242;28;20192;-85
2021/06/29 08:04:29;;;;;;;16.58;8.88;;;21.20;99.90;;;;;;4184537;28;20179;-89
2021/06/29 08:06:31;;;;;;;14.40;8.18;;;21.70;99.90;;;;;;4200985;28;20170;-85
2021/06/29 08:08:31;;;;;;;10.93;8.05;;;21.70;99.90;;;;;;4198590;22;20216;-88
2021/06/29 08:10:32;;;;;;;13.52;8.35;;;21.90;99.90;;;;;;4198558;28;20178;-89
2021/06/29 08:12:33;;;;;;;18.58;8.02;;;22.30;99.90;;;;;;4177936;28;20671;-90
2021/06/29 08:14:36;;;;;;;14.00;8.82;;;22.60;99.90;;;;;;4199534;28;20177;-93
2021/06/29 08:16:36;;;;;;;13.30;8.65;;;22.80;99.90;;;;;;4165257;28;20176;-88
2021/06/29 08:18:38;;;;;;;18.33;9.40;;;22.90;99.90;;;;;;4165443;28;20267;-89
2021/06/29 08:20:38;;;;;;;19.92;8.93;;;23.00;99.90;;;;;;4181878;28;20171;-87
2021/06/29 08:22:40;;;;;;;11.60;9.00;;;23.20;99.90;;;;;;4165196;28;20667;-87
2021/06/29 08:24:40;;;;;;;16.33;8.98;;;23.10;99.90;;;;;;4181830;28;20231;-88
2021/06/29 08:26:41;;;;;;;13.73;9.20;;;23.10;99.90;;;;;;4181362;28;20179;-88
2021/06/29 08:28:42;;;;;;;20.15;9.68;;;23.10;99.90;;;;;;4165292;28;20214;-88
2021/06/29 08:30:44;;;;;;;15.27;9.27;;;23.30;99.90;;;;;;4181873;28;20672;-89
2021/06/29 08:32:44;;;;;;;17.45;8.68;;;23.40;99.90;;;;;;4165250;28;20258;-88
2021/06/29 08:34:45;;;;;;;14.75;8.75;;;23.10;99.90;;;;;;4164921;28;20242;-89
2021/06/29 08:36:46;;;;;;;16.73;8.45;;;23.00;99.90;;;;;;4164960;28;20191;-89
2021/06/29 08:38:48;;;;;;;15.93;8.10;;;22.70;99.90;;;;;;4164721;28;20191;-88
2021/06/29 08:40:49;;;;;;;12.85;8.38;;;22.90;99.90;;;;;;4181346;28;20270;-89
2021/06/29 08:42:50;;;;;;;15.43;8.13;;;23.10;99.90;;;;;;4164918;28;20238;-88
2021/06/29 08:44:50;;;;;;;15.02;8.52;;;23.70;99.90;;;;;;4164949;28;20258;-88
2021/06/29 08:46:51;;;;;;;14.35;8.52;;;24.10;99.90;;;;;;4165097;28;20191;-93
2021/06/29 08:48:52;;;;;;;18.10;8.38;;;24.40;99.90;;;;;;4164969;28;20685;-88
2021/06/29 08:50:52;;;;;;;12.18;8.38;;;24.70;99.90;;;;;;4181397;28;20170;-89
2021/06/29 08:52:53;;;;;;;20.27;8.57;;;24.80;99.90;;;;;;4181275;28;20191;-89
2021/06/29 08:54:54;;;;;;;16.17;9.05;;;25.10;99.90;;;;;;4164739;28;20172;-88
2021/06/29 08:56:55;;;;;;;21.48;8.77;;;25.00;99.90;;;;;;4181173;28;20662;-88
2021/06/29 08:58:57;;;;;;;19.67;9.65;;;25.00;99.90;;;;;;4164756;28;20183;-89
2021/06/29 09:00:57;;;;;;;17.13;9.35;;;25.10;99.90;;;;;;4164590;28;20662;-92
2021/06/29 09:02:58;;;;;;;22.67;10.30;;;24.90;99.90;;;;;;4180813;28;20188;-88
2021/06/29 09:04:59;;;;;;;18.23;9.13;;;25.10;99.90;;;;;;4181030;28;20683;-88
2021/06/29 09:07:34;;;;;;;19.92;9.35;;;25.10;99.90;;;;;;4181113;28;20171;-88
2021/06/29 09:09:36;;;;;;;15.43;8.43;;;25.80;99.90;;;;;;4164180;28;20717;-89
2021/06/29 09:11:36;;;;;;;12.85;8.52;;;25.60;99.90;;;;;;4164835;28;20346;-88
2021/06/29 09:13:38;;;;;;;13.02;8.48;;;25.40;99.90;;;;;;4164790;28;20203;-88
2021/06/29 09:15:48;;;;;;;15.85;9.13;;;25.30;99.90;;;;;;4164853;28;20218;-87
2021/06/29 09:17:53;;;;;;;16.10;9.18;;;25.50;99.90;;;;;;4181221;28;20175;-88
2021/06/29 09:19:53;;;;;;;14.48;8.43;;;25.60;99.90;;;;;;4164010;28;20164;-89
2021/06/29 09:21:54;;;;;;;14.05;8.50;;;25.90;99.90;;;;;;4181272;28;20262;-89
2021/06/29 09:23:55;;;;;;;11.85;8.85;;;25.90;99.90;;;;;;4164563;28;20212;-93
2021/06/29 09:26:00;;;;;;;17.90;9.25;;;25.60;99.90;;;;;;4164516;28;20277;-93
2021/06/29 09:28:01;;;;;;;21.25;9.43;;;25.10;99.90;;;;;;4164591;28;20176;-88
2021/06/29 09:30:01;;;;;;;13.75;8.77;;;24.90;99.90;;;;;;4164516;28;20270;-88
2021/06/29 09:32:19;;;;;;;16.70;8.50;;;25.00;99.90;;;;;;4164190;28;20663;-92
2021/06/29 09:34:20;;;;;;;14.98;8.35;;;25.80;99.90;;;;;;4164310;28;20188;-94
2021/06/29 09:36:23;;;;;;;12.30;7.85;;;26.80;99.90;;;;;;4164567;28;20164;-89
2021/06/29 09:38:26;;;;;;;15.57;8.82;;;27.70;99.90;;;;;;4164627;28;20273;-88
2021/06/29 09:40:29;;;;;;;20.55;9.60;;;27.50;99.90;;;;;;4164601;28;20173;-88
2021/06/29 09:42:30;;;;;;;14.95;8.50;;;27.20;99.90;;;;;;4164355;28;20411;-88
2021/06/29 09:44:35;;;;;;;14.73;8.68;;;27.00;99.90;;;;;;4180599;28;20251;-92
2021/06/29 09:46:37;;;;;;;21.42;8.13;;;26.70;99.90;;;;;;4180783;28;20266;-89
2021/06/29 09:48:44;;;;;;;16.08;9.60;;;26.40;99.90;;;;;;4164433;28;20165;-87
2021/06/29 09:50:50;;;;;;;15.88;9.60;;;25.60;99.90;;;;;;4181174;28;20178;-88
2021/06/29 09:52:52;;;;;;;16.20;9.38;;;25.20;99.90;;;;;;4164435;28;20188;-88
2021/06/29 09:54:52;;;;;;;23.13;9.70;;;24.80;99.90;;;;;;4164444;28;20704;-91
2021/06/29 09:56:53;;;;;;;24.13;10.52;;;25.10;99.90;;;;;;4180751;28;20167;-87
2021/06/29 09:58:58;;;;;;;15.88;9.80;;;25.50;99.90;;;;;;4164232;28;20181;-89
2021/06/29 10:01:01;;;;;;;17.08;10.70;;;25.50;99.90;;;;;;4164357;28;20180;-88
2021/06/29 10:03:20;;;;;;;23.05;9.73;;;25.70;99.90;;;;;;4180221;28;20290;-88
2021/06/29 10:05:22;;;;;;;18.65;9.43;;;25.90;99.90;;;;;;4164123;28;20218;-89
2021/06/29 10:07:23;;;;;;;13.70;9.95;;;26.00;99.90;;;;;;4164079;28;20180;-94
2021/06/29 10:09:23;;;;;;;16.73;9.55;;;26.50;99.90;;;;;;4164176;28;20188;-89
2021/06/29 10:11:26;;;;;;;17.20;9.57;;;26.70;99.90;;;;;;4164229;28;20180;-89
2021/06/29 10:13:26;;;;;;;27.88;10.90;;;26.90;99.90;;;;;;4164110;28;20442;-89
2021/06/29 10:15:27;;;;;;;15.35;10.35;;;27.00;99.90;;;;;;4164415;28;20210;-89
2021/06/29 10:17:28;;;;;;;20.38;10.55;;;26.70;99.90;;;;;;4164251;28;20259;-89
2021/06/29 10:19:34;;;;;;;16.35;10.98;;;26.30;99.90;;;;;;4180692;28;20183;-89
2021/06/29 10:21:37;;;;;;;22.50;10.75;;;25.60;99.90;;;;;;4181096;28;20659;-88
2021/06/29 10:23:40;;;;;;;19.52;10.57;;;25.00;99.90;;;;;;4164187;28;20234;-90
2021/06/29 10:25:42;;;;;;;22.65;10.63;;;24.90;99.90;;;;;;4164226;28;20211;-88
2021/06/29 10:27:44;;;;;;;15.23;10.07;;;24.90;99.90;;;;;;4164030;28;20263;-88